createdAt,value
2017-01-11T00:00:12.401Z,0
2017-01-11T00:01:23.147Z,0
2017-01-11T00:02:33.886Z,0
2017-01-11T00:03:44.216Z,0
2017-01-11T00:04:54.172Z,0
2017-01-11T00:06:04.909Z,0
2017-01-11T00:07:15.636Z,0
2017-01-11T00:08:25.973Z,0
2017-01-11T00:09:36.307Z,0
2017-01-11T00:10:46.650Z,0
2017-01-11T00:11:57.390Z,0
2017-01-11T00:13:08.127Z,0
2017-01-11T00:14:18.857Z,0
2017-01-11T00:15:29.214Z,0
2017-01-11T00:16:39.575Z,0
2017-01-11T00:17:50.358Z,0
2017-01-11T00:19:01.080Z,0
2017-01-11T00:20:11.810Z,0
2017-01-11T00:21:22.163Z,0
2017-01-11T00:22:32.903Z,0
2017-01-11T00:23:43.640Z,0
2017-01-11T00:24:54.379Z,0
2017-01-11T00:26:05.113Z,0
2017-01-11T00:27:15.445Z,0
2017-01-11T00:28:25.811Z,0
2017-01-11T00:29:36.548Z,0
2017-01-11T00:30:46.491Z,0
2017-01-11T00:31:57.223Z,0
2017-01-11T00:33:07.975Z,0
2017-01-11T00:34:18.701Z,0
2017-01-11T00:35:29.048Z,0
2017-01-11T00:36:39.793Z,0
2017-01-11T00:37:50.534Z,0
2017-01-11T00:39:01.272Z,0
2017-01-11T00:40:12.003Z,0
2017-01-11T00:41:21.972Z,0
2017-01-11T00:42:32.722Z,0
2017-01-11T00:43:42.328Z,0
2017-01-11T00:44:52.663Z,0
2017-01-11T00:46:03.404Z,0
2017-01-11T00:47:14.134Z,0
2017-01-11T00:48:24.880Z,0
2017-01-11T00:49:35.603Z,0
2017-01-11T00:50:46.349Z,0
2017-01-11T00:51:56.715Z,0
2017-01-11T00:53:07.055Z,0
2017-01-11T00:54:17.053Z,0
2017-01-11T00:55:26.996Z,0
2017-01-11T00:56:37.333Z,0
2017-01-11T00:57:47.284Z,0
2017-01-11T00:58:58.018Z,0
2017-01-11T01:00:08.368Z,0
2017-01-11T01:01:19.110Z,0
2017-01-11T01:02:29.067Z,0
2017-01-11T01:03:39.804Z,0
2017-01-11T01:04:50.561Z,0
2017-01-11T01:06:01.296Z,0
2017-01-11T01:07:12.045Z,0
2017-01-11T01:08:22.790Z,0
2017-01-11T01:09:33.522Z,0
2017-01-11T01:10:43.915Z,0
2017-01-11T01:11:54.641Z,0
2017-01-11T01:13:04.992Z,0
2017-01-11T01:14:15.760Z,0
2017-01-11T01:15:26.539Z,0
2017-01-11T01:16:37.302Z,0
2017-01-11T01:17:47.245Z,0
2017-01-11T01:18:57.982Z,0
2017-01-11T01:20:08.304Z,0
2017-01-11T01:21:19.051Z,0
2017-01-11T01:22:29.785Z,0
2017-01-11T01:23:40.533Z,0
2017-01-11T01:24:50.884Z,0
2017-01-11T01:26:01.621Z,0
2017-01-11T01:27:12.365Z,0
2017-01-11T01:28:23.090Z,0
2017-01-11T01:29:33.418Z,0
2017-01-11T01:30:44.153Z,0
2017-01-11T01:31:54.876Z,0
2017-01-11T01:33:05.868Z,0
2017-01-11T01:34:16.196Z,0
2017-01-11T01:35:26.931Z,0
2017-01-11T01:36:37.687Z,0
2017-01-11T01:37:48.431Z,0
2017-01-11T01:38:59.170Z,0
2017-01-11T01:40:09.504Z,0
2017-01-11T01:41:20.239Z,0
2017-01-11T01:42:30.576Z,0
2017-01-11T01:43:41.308Z,0
2017-01-11T01:44:51.647Z,0
2017-01-11T01:46:02.388Z,0
2017-01-11T01:47:12.723Z,0
2017-01-11T01:48:22.661Z,0
2017-01-11T01:49:33.403Z,0
2017-01-11T01:50:44.144Z,0
2017-01-11T01:51:54.887Z,0
2017-01-11T01:53:05.643Z,0
2017-01-11T01:54:16.375Z,0
2017-01-11T01:55:26.715Z,0
2017-01-11T01:56:37.453Z,0
2017-01-11T01:57:47.794Z,0
2017-01-11T01:58:58.521Z,0
2017-01-11T02:00:08.463Z,0
2017-01-11T02:01:19.223Z,0
2017-01-11T02:02:29.995Z,0
2017-01-11T02:03:40.751Z,0
2017-01-11T02:04:51.513Z,0
2017-01-11T02:06:01.844Z,0
2017-01-11T02:07:12.582Z,0
2017-01-11T02:08:22.527Z,0
2017-01-11T02:09:32.900Z,0
2017-01-11T02:10:43.254Z,0
2017-01-11T02:11:53.996Z,0
2017-01-11T02:13:04.318Z,0
2017-01-11T02:14:14.669Z,0
2017-01-11T02:15:25.416Z,0
2017-01-11T02:16:36.153Z,0
2017-01-11T02:17:46.500Z,0
2017-01-11T02:18:56.837Z,0
2017-01-11T02:20:07.183Z,0
2017-01-11T02:21:17.914Z,0
2017-01-11T02:22:28.662Z,0
2017-01-11T02:23:39.392Z,0
2017-01-11T02:24:50.139Z,0
2017-01-11T02:26:00.876Z,0
2017-01-11T02:27:11.598Z,0
2017-01-11T02:28:22.329Z,0
2017-01-11T02:29:32.664Z,0
2017-01-11T02:30:43.402Z,0
2017-01-11T02:31:54.143Z,0
2017-01-11T02:33:04.876Z,0
2017-01-11T02:34:15.222Z,0
2017-01-11T02:35:27.377Z,0
2017-01-11T02:36:38.114Z,0
2017-01-11T02:37:48.850Z,0
2017-01-11T02:38:59.607Z,0
2017-01-11T02:40:10.339Z,0
2017-01-11T02:41:21.082Z,0
2017-01-11T02:42:31.423Z,0
2017-01-11T02:43:42.158Z,0
2017-01-11T02:44:52.880Z,0
2017-01-11T02:46:03.616Z,0
2017-01-11T02:47:14.354Z,0
2017-01-11T02:48:25.087Z,0
2017-01-11T02:49:35.821Z,0
2017-01-11T02:50:46.203Z,0
2017-01-11T02:51:56.922Z,0
2017-01-11T02:53:07.268Z,0
2017-01-11T02:54:18.024Z,0
2017-01-11T02:55:28.762Z,0
2017-01-11T02:56:39.522Z,0
2017-01-11T02:57:50.284Z,0
2017-01-11T02:59:00.633Z,0
2017-01-11T03:00:10.975Z,0
2017-01-11T03:01:21.716Z,0
2017-01-11T03:02:32.057Z,0
2017-01-11T03:34:23.195Z,0
2017-01-11T03:35:33.918Z,0
2017-01-11T03:36:44.653Z,0
2017-01-11T03:37:55.378Z,0
2017-01-11T03:39:05.713Z,0
2017-01-11T03:40:16.460Z,0
2017-01-11T03:41:27.219Z,0
2017-01-11T03:42:37.944Z,0
2017-01-11T03:43:48.685Z,0
2017-01-11T03:44:58.638Z,0
2017-01-11T03:46:09.375Z,0
2017-01-11T03:47:20.125Z,0
2017-01-11T03:48:30.454Z,0
2017-01-11T03:49:40.793Z,0
2017-01-11T03:50:51.527Z,0
2017-01-11T03:52:02.249Z,0
2017-01-11T03:53:12.597Z,0
2017-01-11T03:54:22.937Z,0
2017-01-11T03:55:33.728Z,0
2017-01-11T03:56:44.069Z,0
2017-01-11T03:57:54.425Z,0
2017-01-11T03:59:05.151Z,0
2017-01-11T04:00:15.511Z,0
2017-01-11T04:01:26.250Z,0
2017-01-11T04:02:36.590Z,0
2017-01-11T04:03:46.932Z,0
2017-01-11T04:04:57.656Z,0
2017-01-11T04:06:08.391Z,0
2017-01-11T04:07:19.142Z,0
2017-01-11T04:08:29.904Z,0
2017-01-11T04:09:40.636Z,0
2017-01-11T04:10:50.985Z,0
2017-01-11T04:12:01.324Z,0
2017-01-11T04:13:11.672Z,0
2017-01-11T04:14:22.008Z,0
2017-01-11T04:15:32.742Z,0
2017-01-11T04:16:43.477Z,0
2017-01-11T04:17:53.806Z,0
2017-01-11T04:19:04.156Z,0
2017-01-11T04:20:14.899Z,0
2017-01-11T04:21:25.631Z,0
2017-01-11T04:22:36.383Z,0
2017-01-11T04:23:47.130Z,0
2017-01-11T04:24:57.899Z,0
2017-01-11T04:26:08.619Z,0
2017-01-11T04:27:19.349Z,0
2017-01-11T04:28:29.696Z,0
2017-01-11T04:29:40.413Z,0
2017-01-11T04:30:51.157Z,0
2017-01-11T04:32:01.911Z,0
2017-01-11T04:33:12.650Z,0
2017-01-11T04:34:23.004Z,0
2017-01-11T04:35:33.723Z,0
2017-01-11T04:36:44.465Z,0
2017-01-11T04:37:55.237Z,0
2017-01-11T04:39:05.592Z,0
2017-01-11T04:40:15.545Z,0
2017-01-11T04:41:26.286Z,0
2017-01-11T04:42:37.017Z,0
2017-01-11T04:43:47.738Z,0
2017-01-11T04:44:58.476Z,0
2017-01-11T04:46:08.827Z,0
2017-01-11T04:47:19.577Z,0
2017-01-11T04:48:29.918Z,0
2017-01-11T04:49:40.653Z,0
2017-01-11T04:50:50.977Z,0
2017-01-11T04:52:01.732Z,0
2017-01-11T04:53:12.468Z,0
2017-01-11T04:54:23.230Z,0
2017-01-11T04:55:33.962Z,0
2017-01-11T04:56:44.300Z,0
2017-01-11T04:57:55.037Z,0
2017-01-11T04:59:05.778Z,0
2017-01-11T05:00:16.371Z,0
2017-01-11T05:01:27.113Z,0
2017-01-11T05:02:37.448Z,0
2017-01-11T05:03:48.210Z,0
2017-01-11T05:04:58.160Z,0
2017-01-11T05:06:08.503Z,0
2017-01-11T05:07:19.250Z,0
2017-01-11T05:08:29.987Z,0
2017-01-11T05:09:40.315Z,0
2017-01-11T05:10:51.056Z,0
2017-01-11T05:12:01.393Z,0
2017-01-11T05:13:12.128Z,0
2017-01-11T05:14:22.505Z,0
2017-01-11T05:15:33.262Z,0
2017-01-11T05:16:44.003Z,0
2017-01-11T05:17:54.776Z,0
2017-01-11T05:19:05.542Z,0
2017-01-11T05:20:16.279Z,0
2017-01-11T05:21:26.637Z,0
2017-01-11T05:22:37.376Z,0
2017-01-11T05:23:47.716Z,0
2017-01-11T05:24:58.454Z,0
2017-01-11T05:26:08.791Z,0
2017-01-11T05:27:19.533Z,0
2017-01-11T05:28:30.265Z,0
2017-01-11T05:29:40.602Z,0
2017-01-11T05:30:50.944Z,0
2017-01-11T05:32:01.285Z,0
2017-01-11T05:33:12.246Z,0
2017-01-11T05:34:22.993Z,0
2017-01-11T05:35:33.749Z,0
2017-01-11T05:36:44.522Z,0
2017-01-11T05:37:54.859Z,0
2017-01-11T05:39:05.206Z,0
2017-01-11T05:40:15.934Z,0
2017-01-11T05:41:26.659Z,0
2017-01-11T05:42:37.388Z,0
2017-01-11T05:43:48.124Z,0
2017-01-11T05:44:58.877Z,0
2017-01-11T05:46:09.215Z,0
2017-01-11T05:47:19.957Z,0
2017-01-11T05:48:30.318Z,0
2017-01-11T05:49:42.160Z,0
2017-01-11T05:50:52.893Z,0
2017-01-11T05:52:03.620Z,0
2017-01-11T05:53:14.390Z,0
2017-01-11T05:54:25.129Z,0
2017-01-11T05:55:35.874Z,0
2017-01-11T05:56:46.603Z,0
2017-01-11T05:57:57.333Z,0
2017-01-11T05:59:08.073Z,0
2017-01-11T06:00:18.396Z,0
2017-01-11T06:01:28.732Z,0
2017-01-11T06:02:39.459Z,0
2017-01-11T06:03:50.199Z,0
2017-01-11T06:04:59.747Z,0
2017-01-11T06:06:10.094Z,0
2017-01-11T06:07:20.816Z,0
2017-01-11T06:08:31.567Z,0
2017-01-11T06:09:42.529Z,0
2017-01-11T06:10:53.255Z,0
2017-01-11T06:12:03.594Z,0
2017-01-11T06:13:13.554Z,0
2017-01-11T06:14:24.291Z,0
2017-01-11T06:15:34.627Z,0
2017-01-11T06:16:45.365Z,0
2017-01-11T06:17:55.704Z,0
2017-01-11T06:19:06.079Z,0
2017-01-11T06:20:16.807Z,0
2017-01-11T06:21:27.561Z,0
2017-01-11T06:22:37.897Z,0
2017-01-11T06:23:48.629Z,0
2017-01-11T06:24:59.357Z,0
2017-01-11T06:26:10.096Z,0
2017-01-11T06:27:20.826Z,0
2017-01-11T06:28:31.156Z,0
2017-01-11T06:29:41.866Z,0
2017-01-11T06:30:52.604Z,0
2017-01-11T06:32:02.560Z,0
2017-01-11T06:33:13.306Z,0
2017-01-11T06:34:23.644Z,0
2017-01-11T06:35:34.386Z,0
2017-01-11T06:36:45.112Z,0
2017-01-11T06:37:55.850Z,0
2017-01-11T06:39:06.215Z,0
2017-01-11T06:40:16.937Z,5
2017-01-11T06:41:26.880Z,5
2017-01-11T06:42:37.616Z,5
2017-01-11T06:43:48.376Z,5
2017-01-11T06:44:58.720Z,5
2017-01-11T06:46:09.060Z,5
2017-01-11T06:47:19.789Z,5
2017-01-11T06:48:29.734Z,10
2017-01-11T06:49:40.076Z,10
2017-01-11T06:50:50.415Z,10
2017-01-11T06:52:00.759Z,10
2017-01-11T06:53:11.491Z,10
2017-01-11T06:54:21.827Z,10
2017-01-11T06:55:32.566Z,15
2017-01-11T06:56:43.515Z,15
2017-01-11T06:57:54.242Z,15
2017-01-11T06:59:04.978Z,15
2017-01-11T07:00:15.726Z,15
2017-01-11T07:01:26.452Z,20
2017-01-11T07:02:37.185Z,20
2017-01-11T07:03:47.932Z,20
2017-01-11T07:04:58.267Z,20
2017-01-11T07:06:09.030Z,25
2017-01-11T07:07:19.365Z,25
2017-01-11T07:08:30.112Z,30
2017-01-11T07:09:40.843Z,30
2017-01-11T07:10:50.806Z,30
2017-01-11T07:12:01.547Z,35
2017-01-11T07:13:12.280Z,35
2017-01-11T07:14:22.996Z,35
2017-01-11T07:15:32.947Z,35
2017-01-11T07:16:43.690Z,40
2017-01-11T07:17:54.465Z,40
2017-01-11T07:19:04.806Z,40
2017-01-11T07:20:15.538Z,45
2017-01-11T07:21:26.289Z,45
2017-01-11T07:22:36.651Z,45
2017-01-11T07:23:47.388Z,45
2017-01-11T07:24:58.136Z,45
2017-01-11T07:26:08.884Z,45
2017-01-11T07:27:19.611Z,45
2017-01-11T07:28:30.337Z,50
2017-01-11T07:29:40.678Z,50
2017-01-11T07:30:51.414Z,50
2017-01-11T07:32:02.156Z,55
2017-01-11T07:33:12.907Z,55
2017-01-11T07:34:23.651Z,55
2017-01-11T07:35:34.377Z,60
2017-01-11T07:36:44.705Z,60
2017-01-11T07:37:55.045Z,65
2017-01-11T07:39:05.800Z,65
2017-01-11T07:40:16.547Z,65
2017-01-11T07:41:27.300Z,65
2017-01-11T07:42:37.644Z,70
2017-01-11T07:43:48.385Z,70
2017-01-11T07:44:59.118Z,70
2017-01-11T07:46:09.848Z,70
2017-01-11T07:47:20.589Z,75
2017-01-11T07:48:31.334Z,75
2017-01-11T07:49:42.082Z,75
2017-01-11T07:50:52.811Z,75
2017-01-11T07:52:02.744Z,80
2017-01-11T07:53:13.467Z,80
2017-01-11T07:54:24.209Z,80
2017-01-11T07:55:34.944Z,85
2017-01-11T07:56:45.677Z,85
2017-01-11T07:57:56.436Z,85
2017-01-11T07:59:07.175Z,85
2017-01-11T08:00:17.504Z,90
2017-01-11T08:01:28.273Z,90
2017-01-11T08:02:38.241Z,90
2017-01-11T08:03:48.977Z,90
2017-01-11T08:04:59.714Z,95
2017-01-11T08:06:10.464Z,95
2017-01-11T08:07:21.211Z,95
2017-01-11T08:08:31.970Z,95
2017-01-11T08:09:42.321Z,95
2017-01-11T08:10:52.661Z,95
2017-01-11T08:12:03.006Z,95
2017-01-11T08:13:13.755Z,100
2017-01-11T08:14:23.707Z,100
2017-01-11T08:15:34.458Z,100
2017-01-11T08:16:45.230Z,100
2017-01-11T08:17:55.173Z,105
2017-01-11T08:19:05.946Z,105
2017-01-11T08:20:16.686Z,105
2017-01-11T08:21:27.412Z,110
2017-01-11T08:22:37.359Z,115
2017-01-11T08:23:47.701Z,115
2017-01-11T08:24:57.641Z,120
2017-01-11T08:26:08.369Z,115
2017-01-11T08:27:19.106Z,115
2017-01-11T08:28:29.838Z,115
2017-01-11T08:29:40.179Z,115
2017-01-11T08:30:50.141Z,120
2017-01-11T08:32:00.483Z,120
2017-01-11T08:33:11.219Z,120
2017-01-11T08:34:21.551Z,120
2017-01-11T08:35:32.292Z,120
2017-01-11T08:36:43.050Z,125
2017-01-11T08:37:53.768Z,125
2017-01-11T08:39:04.507Z,125
2017-01-11T08:40:14.839Z,125
2017-01-11T08:41:25.191Z,125
2017-01-11T08:42:35.933Z,130
2017-01-11T08:43:46.274Z,130
2017-01-11T08:44:57.006Z,130
2017-01-11T08:46:07.743Z,130
2017-01-11T08:47:17.686Z,135
2017-01-11T08:48:28.457Z,135
2017-01-11T08:49:38.810Z,135
2017-01-11T08:50:49.565Z,140
2017-01-11T08:52:00.313Z,140
2017-01-11T08:53:11.043Z,140
2017-01-11T08:54:21.775Z,140
2017-01-11T08:55:32.127Z,140
2017-01-11T08:56:42.864Z,140
2017-01-11T08:57:53.625Z,145
2017-01-11T08:59:03.977Z,145
2017-01-11T09:00:14.709Z,145
2017-01-11T09:01:25.061Z,145
2017-01-11T09:02:35.027Z,145
2017-01-11T09:03:45.821Z,145
2017-01-11T09:04:56.557Z,150
2017-01-11T09:06:07.299Z,150
2017-01-11T09:07:18.077Z,150
2017-01-11T09:08:28.826Z,150
2017-01-11T09:09:39.167Z,150
2017-01-11T09:10:49.908Z,155
2017-01-11T09:12:00.632Z,155
2017-01-11T09:13:11.402Z,155
2017-01-11T09:14:21.760Z,155
2017-01-11T09:15:32.516Z,155
2017-01-11T09:16:43.249Z,170
2017-01-11T09:17:54.008Z,180
2017-01-11T09:19:04.741Z,185
2017-01-11T09:20:15.471Z,175
2017-01-11T09:21:26.220Z,175
2017-01-11T09:22:36.994Z,205
2017-01-11T09:23:46.959Z,225
2017-01-11T09:24:57.691Z,215
2017-01-11T09:26:08.433Z,215
2017-01-11T09:27:19.178Z,225
2017-01-11T09:28:29.122Z,220
2017-01-11T09:29:39.874Z,225
2017-01-11T09:30:50.618Z,225
2017-01-11T09:32:00.965Z,235
2017-01-11T09:33:11.708Z,250
2017-01-11T09:34:22.058Z,260
2017-01-11T09:35:32.785Z,230
2017-01-11T09:36:43.167Z,190
2017-01-11T09:37:54.129Z,195
2017-01-11T09:39:04.866Z,260
2017-01-11T09:40:15.222Z,330
2017-01-11T09:41:25.965Z,230
2017-01-11T09:42:35.926Z,185
2017-01-11T09:43:46.693Z,175
2017-01-11T09:44:57.428Z,175
2017-01-11T09:46:08.166Z,175
2017-01-11T09:47:18.114Z,180
2017-01-11T09:48:28.454Z,180
2017-01-11T09:49:39.211Z,180
2017-01-11T09:50:49.553Z,180
2017-01-11T09:51:59.511Z,180
2017-01-11T09:53:09.861Z,185
2017-01-11T09:54:20.595Z,185
2017-01-11T09:55:31.317Z,185
2017-01-11T09:56:42.061Z,185
2017-01-11T09:57:52.399Z,185
2017-01-11T09:59:02.774Z,185
2017-01-11T10:00:13.522Z,185
2017-01-11T10:01:23.893Z,185
2017-01-11T10:02:34.637Z,185
2017-01-11T10:03:45.371Z,185
2017-01-11T10:04:56.135Z,185
2017-01-11T10:06:06.708Z,190
2017-01-11T10:07:17.430Z,190
2017-01-11T10:08:28.219Z,190
2017-01-11T10:09:38.566Z,190
2017-01-11T10:10:48.918Z,190
2017-01-11T10:11:59.679Z,190
2017-01-11T10:13:10.441Z,190
2017-01-11T10:14:21.175Z,190
2017-01-11T10:15:31.128Z,195
2017-01-11T10:16:41.865Z,195
2017-01-11T10:17:52.606Z,195
2017-01-11T10:19:03.344Z,195
2017-01-11T10:20:13.704Z,195
2017-01-11T10:21:24.441Z,200
2017-01-11T10:22:35.188Z,190
2017-01-11T10:23:45.954Z,195
2017-01-11T10:24:56.690Z,195
2017-01-11T10:26:06.632Z,195
2017-01-11T10:27:17.383Z,195
2017-01-11T10:28:28.120Z,195
2017-01-11T10:29:38.468Z,195
2017-01-11T10:30:49.213Z,195
2017-01-11T10:31:59.551Z,195
2017-01-11T10:33:09.891Z,195
2017-01-11T10:34:20.628Z,195
2017-01-11T10:35:30.996Z,195
2017-01-11T10:36:40.968Z,195
2017-01-11T10:37:50.964Z,195
2017-01-11T10:39:01.687Z,195
2017-01-11T10:40:12.426Z,195
2017-01-11T10:41:22.375Z,195
2017-01-11T10:42:32.720Z,195
2017-01-11T10:43:43.467Z,195
2017-01-11T10:44:53.814Z,195
2017-01-11T10:46:04.548Z,195
2017-01-11T10:47:14.506Z,195
2017-01-11T10:48:25.310Z,195
2017-01-11T10:49:36.301Z,195
2017-01-11T10:50:47.038Z,200
2017-01-11T10:51:57.379Z,200
2017-01-11T10:53:07.724Z,200
2017-01-11T10:54:18.481Z,200
2017-01-11T10:55:29.218Z,200
2017-01-11T10:56:39.170Z,205
2017-01-11T10:57:49.521Z,205
2017-01-11T10:59:00.259Z,205
2017-01-11T11:00:10.592Z,205
2017-01-11T11:01:21.337Z,205
2017-01-11T11:02:31.700Z,205
2017-01-11T11:03:42.062Z,205
2017-01-11T11:04:52.404Z,205
2017-01-11T11:06:03.149Z,205
2017-01-11T11:07:13.516Z,205
2017-01-11T11:08:23.882Z,205
2017-01-11T11:09:34.229Z,205
2017-01-11T11:10:44.601Z,205
2017-01-11T11:11:55.338Z,205
2017-01-11T11:13:06.094Z,205
2017-01-11T11:14:16.821Z,205
2017-01-11T11:15:27.163Z,205
2017-01-11T11:16:37.775Z,210
2017-01-11T11:17:48.117Z,205
2017-01-11T11:18:58.455Z,205
2017-01-11T11:20:08.407Z,205
2017-01-11T11:21:18.358Z,205
2017-01-11T11:22:29.097Z,205
2017-01-11T11:23:39.450Z,205
2017-01-11T11:24:49.778Z,205
2017-01-11T11:25:59.729Z,205
2017-01-11T11:27:10.479Z,210
2017-01-11T11:28:20.432Z,210
2017-01-11T11:29:31.164Z,210
2017-01-11T11:30:41.887Z,215
2017-01-11T11:31:52.629Z,215
2017-01-11T11:33:02.973Z,215
2017-01-11T11:34:13.726Z,215
2017-01-11T11:35:24.464Z,215
2017-01-11T11:36:35.215Z,215
2017-01-11T11:37:45.954Z,215
2017-01-11T11:38:56.698Z,215
2017-01-11T11:40:07.435Z,210
2017-01-11T11:41:18.181Z,210
2017-01-11T11:42:28.948Z,210
2017-01-11T11:43:39.306Z,210
2017-01-11T11:44:50.057Z,210
2017-01-11T11:46:00.415Z,210
2017-01-11T11:47:10.753Z,210
2017-01-11T11:48:21.486Z,210
2017-01-11T11:49:32.219Z,210
2017-01-11T11:50:42.161Z,210
2017-01-11T11:51:52.508Z,210
2017-01-11T11:53:02.837Z,210
2017-01-11T11:54:13.591Z,210
2017-01-11T11:55:23.578Z,210
2017-01-11T11:56:34.326Z,205
2017-01-11T11:57:45.072Z,205
2017-01-11T11:58:54.225Z,205
2017-01-11T12:00:04.980Z,205
2017-01-11T12:01:15.319Z,205
2017-01-11T12:02:26.058Z,205
2017-01-11T12:03:36.821Z,205
2017-01-11T12:04:47.177Z,205
2017-01-11T12:05:57.906Z,205
2017-01-11T12:07:07.875Z,205
2017-01-11T12:08:18.237Z,200
2017-01-11T12:09:28.994Z,205
2017-01-11T12:10:39.746Z,205
2017-01-11T12:11:50.494Z,205
2017-01-11T12:13:00.676Z,205
2017-01-11T12:14:11.011Z,200
2017-01-11T12:15:21.339Z,200
2017-01-11T12:16:31.296Z,205
2017-01-11T12:17:41.651Z,200
2017-01-11T12:18:52.427Z,205
2017-01-11T12:20:02.796Z,205
2017-01-11T12:21:13.179Z,205
2017-01-11T12:22:23.979Z,200
2017-01-11T12:23:34.720Z,205
2017-01-11T12:24:45.477Z,205
2017-01-11T12:25:55.884Z,205
2017-01-11T12:27:06.225Z,200
2017-01-11T12:28:16.217Z,200
2017-01-11T12:29:26.556Z,200
2017-01-11T12:30:36.501Z,200
2017-01-11T12:31:47.273Z,200
2017-01-11T12:32:58.027Z,200
2017-01-11T12:34:07.977Z,200
2017-01-11T12:35:17.523Z,200
2017-01-11T12:36:27.879Z,200
2017-01-11T12:37:38.242Z,200
2017-01-11T12:38:48.213Z,200
2017-01-11T12:39:58.990Z,195
2017-01-11T12:41:08.979Z,195
2017-01-11T12:42:19.382Z,195
2017-01-11T12:43:30.179Z,195
2017-01-11T12:44:40.658Z,195
2017-01-11T12:45:51.049Z,190
2017-01-11T12:47:01.019Z,190
2017-01-11T12:48:11.783Z,190
2017-01-11T12:49:22.574Z,190
2017-01-11T12:50:33.335Z,185
2017-01-11T12:51:44.063Z,185
2017-01-11T12:52:54.401Z,185
2017-01-11T12:54:04.756Z,185
2017-01-11T12:55:15.503Z,185
2017-01-11T12:56:26.237Z,180
2017-01-11T12:57:36.568Z,180
2017-01-11T12:58:47.328Z,180
2017-01-11T12:59:57.303Z,175
2017-01-11T13:01:08.081Z,175
2017-01-11T13:02:18.873Z,175
2017-01-11T13:03:29.450Z,170
2017-01-11T13:04:39.806Z,170
2017-01-11T13:05:50.163Z,170
2017-01-11T13:07:00.900Z,165
2017-01-11T13:08:11.650Z,165
2017-01-11T13:09:22.383Z,165
2017-01-11T13:10:32.745Z,160
2017-01-11T13:11:43.517Z,160
2017-01-11T13:12:53.495Z,160
2017-01-11T13:14:04.263Z,155
2017-01-11T13:15:14.609Z,160
2017-01-11T13:16:24.989Z,155
2017-01-11T13:17:35.349Z,150
2017-01-11T13:18:44.946Z,150
2017-01-11T13:19:55.315Z,150
2017-01-11T13:21:06.083Z,150
2017-01-11T13:22:16.057Z,150
2017-01-11T13:23:26.406Z,145
2017-01-11T13:24:37.186Z,145
2017-01-11T13:25:47.143Z,145
2017-01-11T13:26:57.492Z,145
2017-01-11T13:28:07.846Z,140
2017-01-11T13:29:18.603Z,140
2017-01-11T13:30:28.186Z,140
2017-01-11T13:31:38.536Z,140
2017-01-11T13:32:49.362Z,135
2017-01-11T13:33:59.728Z,135
2017-01-11T13:35:10.500Z,130
2017-01-11T13:36:21.240Z,130
2017-01-11T13:37:31.992Z,130
2017-01-11T13:38:42.369Z,125
2017-01-11T13:39:53.134Z,125
2017-01-11T13:41:03.534Z,125
2017-01-11T13:42:14.286Z,125
2017-01-11T13:43:24.259Z,125
2017-01-11T13:44:35.018Z,120
2017-01-11T13:45:45.778Z,120
2017-01-11T13:46:56.135Z,120
2017-01-11T13:48:05.711Z,115
2017-01-11T13:49:16.062Z,115
2017-01-11T13:50:26.419Z,115
2017-01-11T13:51:36.785Z,110
2017-01-11T13:52:47.133Z,110
2017-01-11T13:53:57.878Z,110
2017-01-11T13:55:08.620Z,110
2017-01-11T13:56:18.590Z,105
2017-01-11T13:57:29.383Z,105
2017-01-11T13:58:39.785Z,105
2017-01-11T13:59:50.179Z,100
2017-01-11T14:01:00.124Z,100
2017-01-11T14:02:10.886Z,100
2017-01-11T14:03:20.867Z,95
2017-01-11T14:04:31.224Z,95
2017-01-11T14:05:41.571Z,95
2017-01-11T14:06:52.327Z,90
2017-01-11T14:08:03.099Z,90
2017-01-11T14:09:13.849Z,90
2017-01-11T14:10:23.794Z,90
2017-01-11T14:11:34.550Z,85
2017-01-11T14:12:44.952Z,85
2017-01-11T14:13:54.915Z,85
2017-01-11T14:15:05.661Z,85
2017-01-11T14:16:16.020Z,85
2017-01-11T14:17:26.754Z,85
2017-01-11T14:18:37.120Z,80
2017-01-11T14:19:47.477Z,80
2017-01-11T14:20:57.832Z,75
2017-01-11T14:22:08.196Z,75
2017-01-11T14:23:18.952Z,75
2017-01-11T14:24:29.701Z,70
2017-01-11T14:25:40.445Z,70
2017-01-11T14:26:51.197Z,65
2017-01-11T14:28:01.939Z,65
2017-01-11T14:29:12.286Z,60
2017-01-11T14:30:23.045Z,60
2017-01-11T14:31:33.011Z,55
2017-01-11T14:32:42.603Z,55
2017-01-11T14:33:52.976Z,50
2017-01-11T14:35:03.326Z,50
2017-01-11T14:36:13.703Z,50
2017-01-11T14:37:24.066Z,50
2017-01-11T14:38:34.440Z,45
2017-01-11T14:39:45.186Z,45
2017-01-11T14:40:55.931Z,40
2017-01-11T14:42:06.288Z,35
2017-01-11T14:43:17.056Z,35
2017-01-11T14:44:27.804Z,30
2017-01-11T14:45:38.153Z,30
2017-01-11T14:46:48.540Z,30
2017-01-11T14:47:58.497Z,25
2017-01-11T14:49:09.271Z,25
2017-01-11T14:50:20.015Z,25
2017-01-11T14:51:30.774Z,25
2017-01-11T14:52:41.137Z,20
2017-01-11T14:53:51.874Z,20
2017-01-11T14:55:02.657Z,20
2017-01-11T14:56:13.404Z,20
2017-01-11T14:57:23.750Z,20
2017-01-11T14:58:33.718Z,15
2017-01-11T14:59:44.061Z,15
2017-01-11T15:00:54.814Z,15
2017-01-11T15:02:05.566Z,15
2017-01-11T15:03:15.934Z,15
2017-01-11T15:04:26.299Z,15
2017-01-11T15:05:37.083Z,15
2017-01-11T15:06:47.442Z,10
2017-01-11T15:07:57.796Z,10
2017-01-11T15:09:08.572Z,10
2017-01-11T15:10:19.332Z,10
2017-01-11T15:11:29.710Z,10
2017-01-11T15:12:40.078Z,10
2017-01-11T15:13:50.849Z,5
2017-01-11T15:15:00.862Z,5
2017-01-11T15:16:11.634Z,5
2017-01-11T15:17:22.396Z,5
2017-01-11T15:18:33.152Z,5
2017-01-11T15:19:43.502Z,5
2017-01-11T15:20:54.260Z,5
2017-01-11T15:22:05.026Z,5
2017-01-11T15:23:15.788Z,5
2017-01-11T15:24:26.200Z,0
2017-01-11T15:25:36.958Z,0
2017-01-11T15:26:47.710Z,0
2017-01-11T15:27:58.126Z,0
2017-01-11T15:29:08.877Z,0
2017-01-11T15:30:19.648Z,0
2017-01-11T15:31:30.010Z,0
2017-01-11T15:32:40.399Z,0
2017-01-11T15:33:50.806Z,0
2017-01-11T15:35:01.170Z,0
2017-01-11T15:36:10.753Z,0
2017-01-11T15:37:20.748Z,0
2017-01-11T15:38:30.703Z,0
2017-01-11T15:39:41.077Z,0
2017-01-11T15:40:51.840Z,0
2017-01-11T15:42:02.613Z,0
2017-01-11T15:43:12.172Z,0
2017-01-11T15:44:22.157Z,0
2017-01-11T15:45:32.513Z,0
2017-01-11T15:46:42.872Z,0
2017-01-11T15:47:53.623Z,0
2017-01-11T15:49:04.357Z,0
2017-01-11T15:50:14.716Z,0
2017-01-11T15:51:25.468Z,0
2017-01-11T15:52:36.252Z,0
2017-01-11T15:53:46.614Z,0
2017-01-11T15:54:57.380Z,0
2017-01-11T15:56:06.949Z,0
2017-01-11T15:57:17.702Z,0
2017-01-11T15:58:28.075Z,0
2017-01-11T15:59:38.441Z,0
2017-01-11T16:00:48.808Z,0
2017-01-11T16:01:59.544Z,0
2017-01-11T16:03:09.916Z,0
2017-01-11T16:04:20.667Z,0
2017-01-11T16:05:31.029Z,0
2017-01-11T16:06:41.784Z,0
2017-01-11T16:07:52.527Z,0
2017-01-11T16:09:03.271Z,0
2017-01-11T16:10:12.826Z,0
2017-01-11T16:11:23.598Z,0
2017-01-11T16:12:34.333Z,0
2017-01-11T16:13:45.093Z,0
2017-01-11T16:14:55.059Z,0
2017-01-11T16:16:05.022Z,0
2017-01-11T16:17:15.388Z,0
2017-01-11T16:18:25.740Z,0
2017-01-11T16:19:36.102Z,0
2017-01-11T16:20:46.458Z,0
2017-01-11T16:21:57.255Z,0
2017-01-11T16:23:08.007Z,0
2017-01-11T16:24:18.757Z,0
2017-01-11T16:25:29.544Z,0
2017-01-11T16:26:39.901Z,0
2017-01-11T16:27:50.648Z,0
2017-01-11T16:29:01.012Z,0
2017-01-11T16:30:11.777Z,0
2017-01-11T16:31:22.133Z,0
2017-01-11T16:32:32.513Z,0
2017-01-11T16:33:42.868Z,0
2017-01-11T16:34:53.614Z,0
2017-01-11T16:36:03.964Z,0
2017-01-11T16:37:14.708Z,0
2017-01-11T16:38:25.069Z,0
2017-01-11T16:39:35.034Z,0
2017-01-11T16:40:45.392Z,0
2017-01-11T16:41:56.152Z,0
2017-01-11T16:43:06.912Z,0
2017-01-11T16:44:17.701Z,0
2017-01-11T16:45:28.443Z,0
2017-01-11T16:46:38.400Z,0
2017-01-11T16:47:49.151Z,0
2017-01-11T16:48:59.902Z,0
2017-01-11T16:50:10.656Z,0
2017-01-11T16:51:21.418Z,0
2017-01-11T16:52:31.792Z,0
2017-01-11T16:53:42.146Z,0
2017-01-11T16:54:52.962Z,0
2017-01-11T16:56:03.397Z,0
2017-01-11T16:57:13.743Z,0
2017-01-11T16:58:24.511Z,0
2017-01-11T16:59:34.862Z,0
2017-01-11T17:00:45.217Z,0
2017-01-11T17:01:55.970Z,0
2017-01-11T17:03:06.723Z,0
2017-01-11T17:04:17.115Z,0
2017-01-11T17:05:27.887Z,0
2017-01-11T17:06:37.879Z,0
2017-01-11T17:07:48.244Z,0
2017-01-11T17:08:58.993Z,0
2017-01-11T17:10:09.772Z,0
2017-01-11T17:11:20.138Z,0
2017-01-11T17:12:30.527Z,0
2017-01-11T17:13:40.896Z,0
2017-01-11T17:14:50.887Z,0
2017-01-11T17:16:00.934Z,0
2017-01-11T17:17:11.308Z,0
2017-01-11T17:18:22.077Z,0
2017-01-11T17:19:32.838Z,0
2017-01-11T17:20:43.038Z,0
2017-01-11T17:21:53.399Z,0